sensor_id;sensor_type;location;lat;lon;timestamp;pressure;altitude;pressure_sealevel;temperature;humidity
58245;BME280;44550;43.864;25.986;2022-09-16T03:34:44;100127.50;;;25.95;40.81
58245;BME280;44550;43.864;25.986;2022-09-16T03:39:22;100128.31;;;25.83;41.09
58245;BME280;44550;43.864;25.986;2022-09-16T03:44:12;100121.34;;;25.80;41.05
58245;BME280;44550;43.864;25.986;2022-09-16T04:41:05;100186.63;;;26.59;38.35
58245;BME280;44550;43.864;25.986;2022-09-16T04:45:06;100170.75;;;26.81;37.95
58245;BME280;44550;43.864;25.986;2022-09-16T04:49:51;100172.16;;;26.87;38.13
58245;BME280;44550;43.864;25.986;2022-09-16T04:54:09;100167.75;;;26.60;38.65
58245;BME280;44550;43.864;25.986;2022-09-16T04:58:46;100168.97;;;26.69;38.43
58245;BME280;44550;43.864;25.986;2022-09-16T05:03:00;100151.75;;;26.71;38.16
58245;BME280;44550;43.864;25.986;2022-09-16T05:07:04;100164.31;;;26.97;37.97
58245;BME280;44550;43.864;25.986;2022-09-16T05:11:21;100174.53;;;27.17;37.91
58245;BME280;44550;43.864;25.986;2022-09-16T05:20:13;100183.00;;;26.98;38.49
58245;BME280;44550;43.864;25.986;2022-09-16T05:24:22;100192.00;;;26.84;38.85
58245;BME280;44550;43.864;25.986;2022-09-16T13:03:26;100135.56;;;32.05;30.88
58245;BME280;44550;43.864;25.986;2022-09-16T13:25:56;100147.09;;;31.97;30.74
58245;BME280;44550;43.864;25.986;2022-09-16T13:32:22;100144.78;;;31.83;30.88
58245;BME280;44550;43.864;25.986;2022-09-16T13:37:02;100160.28;;;31.81;31.49
58245;BME280;44550;43.864;25.986;2022-09-16T13:42:23;100169.53;;;31.78;31.86
58245;BME280;44550;43.864;25.986;2022-09-16T14:07:57;100161.06;;;31.12;35.11
58245;BME280;44550;43.864;25.986;2022-09-16T14:27:29;100129.47;;;31.33;33.72
58245;BME280;44550;43.864;25.986;2022-09-16T14:37:16;100129.06;;;31.38;34.44
58245;BME280;44550;43.864;25.986;2022-09-16T14:42:25;100132.63;;;31.48;34.37
58245;BME280;44550;43.864;25.986;2022-09-16T14:56:32;100117.75;;;31.13;35.04
58245;BME280;44550;43.864;25.986;2022-09-16T15:00:44;100094.03;;;30.86;35.35
58245;BME280;44550;43.864;25.986;2022-09-16T15:04:48;100087.47;;;30.79;35.57
58245;BME280;44550;43.864;25.986;2022-09-16T15:08:57;100125.03;;;30.92;35.83
58245;BME280;44550;43.864;25.986;2022-09-16T15:13:01;100111.50;;;30.61;36.37
58245;BME280;44550;43.864;25.986;2022-09-16T15:17:03;100121.50;;;30.71;36.45
58245;BME280;44550;43.864;25.986;2022-09-16T15:21:06;100103.97;;;30.65;36.22
58245;BME280;44550;43.864;25.986;2022-09-16T15:25:19;100098.53;;;30.55;36.70
58245;BME280;44550;43.864;25.986;2022-09-16T15:29:31;100106.44;;;30.26;37.13
58245;BME280;44550;43.864;25.986;2022-09-16T15:33:42;100076.91;;;30.04;37.29
58245;BME280;44550;43.864;25.986;2022-09-16T15:37:54;100122.28;;;30.19;37.44
58245;BME280;44550;43.864;25.986;2022-09-16T15:42:12;100114.28;;;30.29;37.60
58245;BME280;44550;43.864;25.986;2022-09-16T15:46:24;100098.91;;;30.09;37.93
58245;BME280;44550;43.864;25.986;2022-09-16T15:50:26;100107.22;;;30.17;38.07
58245;BME280;44550;43.864;25.986;2022-09-16T15:54:29;100066.97;;;30.04;37.92
58245;BME280;44550;43.864;25.986;2022-09-16T15:58:38;100082.56;;;30.22;38.00
58245;BME280;44550;43.864;25.986;2022-09-16T16:02:49;100046.25;;;30.05;37.93
58245;BME280;44550;43.864;25.986;2022-09-16T16:06:56;100080.25;;;30.17;38.26
58245;BME280;44550;43.864;25.986;2022-09-16T16:11:08;100036.72;;;30.01;38.33
58245;BME280;44550;43.864;25.986;2022-09-16T16:15:08;100075.25;;;30.12;38.84
58245;BME280;44550;43.864;25.986;2022-09-16T16:19:10;100061.75;;;30.24;38.50
58245;BME280;44550;43.864;25.986;2022-09-16T16:23:14;100039.56;;;30.20;38.90
58245;BME280;44550;43.864;25.986;2022-09-16T16:27:16;100061.09;;;29.99;39.37
58245;BME280;44550;43.864;25.986;2022-09-16T16:31:30;99980.63;;;29.41;39.74
58245;BME280;44550;43.864;25.986;2022-09-16T16:36:01;100047.31;;;29.60;40.40
58245;BME280;44550;43.864;25.986;2022-09-16T16:40:07;100052.03;;;29.36;41.06
58245;BME280;44550;43.864;25.986;2022-09-16T16:44:10;99971.13;;;28.71;41.74
58245;BME280;44550;43.864;25.986;2022-09-16T16:48:12;100020.88;;;28.99;42.23
58245;BME280;44550;43.864;25.986;2022-09-16T16:52:15;99960.28;;;28.62;42.41
58245;BME280;44550;43.864;25.986;2022-09-16T16:56:21;99983.19;;;28.99;42.04
58245;BME280;44550;43.864;25.986;2022-09-16T17:00:21;100033.81;;;29.17;42.11
58245;BME280;44550;43.864;25.986;2022-09-16T17:04:21;100052.78;;;29.26;42.18
58245;BME280;44550;43.864;25.986;2022-09-16T17:08:24;100068.69;;;29.30;42.39
58245;BME280;44550;43.864;25.986;2022-09-16T17:12:24;100016.63;;;28.41;43.96
58245;BME280;44550;43.864;25.986;2022-09-16T17:16:24;100038.88;;;27.96;45.67
58245;BME280;44550;43.864;25.986;2022-09-16T17:20:33;100050.59;;;27.71;46.30
58245;BME280;44550;43.864;25.986;2022-09-16T17:24:37;100062.59;;;28.02;45.95
58245;BME280;44550;43.864;25.986;2022-09-16T17:28:42;100062.91;;;28.22;45.53
58245;BME280;44550;43.864;25.986;2022-09-16T17:33:02;100013.00;;;28.06;45.07
58245;BME280;44550;43.864;25.986;2022-09-16T17:37:18;100058.59;;;28.54;44.54
58245;BME280;44550;43.864;25.986;2022-09-16T17:41:29;100079.97;;;28.56;44.64
58245;BME280;44550;43.864;25.986;2022-09-16T17:45:43;100045.53;;;28.26;44.74
58245;BME280;44550;43.864;25.986;2022-09-16T17:49:46;100070.22;;;28.20;45.19
58245;BME280;44550;43.864;25.986;2022-09-16T17:54:09;100074.66;;;28.32;45.16
58245;BME280;44550;43.864;25.986;2022-09-16T17:58:19;100103.75;;;28.38;44.72
58245;BME280;44550;43.864;25.986;2022-09-16T18:02:25;100110.22;;;28.36;44.45
58245;BME280;44550;43.864;25.986;2022-09-16T18:06:29;100123.66;;;28.36;44.63
58245;BME280;44550;43.864;25.986;2022-09-16T18:10:33;100105.16;;;28.20;44.89
58245;BME280;44550;43.864;25.986;2022-09-16T18:14:43;100108.69;;;28.20;45.26
58245;BME280;44550;43.864;25.986;2022-09-16T18:19:01;100105.75;;;28.12;45.61
58245;BME280;44550;43.864;25.986;2022-09-16T18:23:20;100094.50;;;28.07;45.85
58245;BME280;44550;43.864;25.986;2022-09-16T18:27:49;100040.72;;;27.96;45.64
58245;BME280;44550;43.864;25.986;2022-09-16T18:33:04;100075.81;;;28.17;45.73
58245;BME280;44550;43.864;25.986;2022-09-16T18:50:02;100078.78;;;27.78;46.75
58245;BME280;44550;43.864;25.986;2022-09-16T19:01:16;100111.00;;;28.14;46.31
58245;BME280;44550;43.864;25.986;2022-09-16T19:06:28;100110.31;;;28.23;45.38
58245;BME280;44550;43.864;25.986;2022-09-16T19:10:44;100116.31;;;28.26;45.21
58245;BME280;44550;43.864;25.986;2022-09-16T19:20:26;100120.28;;;28.09;45.17
58245;BME280;44550;43.864;25.986;2022-09-16T19:24:49;100122.13;;;28.09;45.33
58245;BME280;44550;43.864;25.986;2022-09-16T19:28:53;100114.13;;;27.96;45.71
58245;BME280;44550;43.864;25.986;2022-09-16T19:33:01;100051.19;;;27.39;46.24
58245;BME280;44550;43.864;25.986;2022-09-16T19:37:04;100065.69;;;27.13;47.07
58245;BME280;44550;43.864;25.986;2022-09-16T19:52:09;100126.00;;;27.07;48.45
58245;BME280;44550;43.864;25.986;2022-09-16T19:56:33;100122.78;;;27.02;48.58
58245;BME280;44550;43.864;25.986;2022-09-16T20:00:45;100118.19;;;26.79;49.19
58245;BME280;44550;43.864;25.986;2022-09-16T20:04:53;100113.78;;;26.65;49.54
58245;BME280;44550;43.864;25.986;2022-09-16T20:08:59;100109.53;;;26.50;49.67
58245;BME280;44550;43.864;25.986;2022-09-16T20:13:10;100054.44;;;26.18;49.65
58245;BME280;44550;43.864;25.986;2022-09-16T20:17:22;100109.72;;;26.72;48.94
58245;BME280;44550;43.864;25.986;2022-09-16T20:21:29;100085.69;;;26.58;48.85
58245;BME280;44550;43.864;25.986;2022-09-16T20:25:37;100108.84;;;26.71;48.78
58245;BME280;44550;43.864;25.986;2022-09-16T20:29:53;100078.63;;;26.69;47.87
58245;BME280;44550;43.864;25.986;2022-09-16T20:34:00;100104.97;;;27.01;47.45
58245;BME280;44550;43.864;25.986;2022-09-16T20:38:10;100105.38;;;27.08;46.91
58245;BME280;44550;43.864;25.986;2022-09-16T20:42:13;100107.44;;;27.17;46.76
58245;BME280;44550;43.864;25.986;2022-09-16T20:46:37;100109.78;;;27.09;46.60
58245;BME280;44550;43.864;25.986;2022-09-16T20:50:39;100112.28;;;26.99;46.67
58245;BME280;44550;43.864;25.986;2022-09-16T20:54:42;100096.72;;;26.79;47.16
58245;BME280;44550;43.864;25.986;2022-09-16T20:58:53;100095.88;;;26.65;47.35
58245;BME280;44550;43.864;25.986;2022-09-16T21:02:57;100130.84;;;27.02;46.65
58245;BME280;44550;43.864;25.986;2022-09-16T21:06:57;100117.22;;;27.05;46.06
58245;BME280;44550;43.864;25.986;2022-09-16T21:11:09;100091.47;;;27.15;45.18
58245;BME280;44550;43.864;25.986;2022-09-16T21:15:10;100120.59;;;27.33;44.76
58245;BME280;44550;43.864;25.986;2022-09-16T21:19:15;100105.94;;;27.13;45.06
58245;BME280;44550;43.864;25.986;2022-09-16T21:23:14;100109.91;;;26.94;45.49
58245;BME280;44550;43.864;25.986;2022-09-16T21:27:15;100091.25;;;26.93;45.90
58245;BME280;44550;43.864;25.986;2022-09-16T21:31:15;100110.97;;;27.05;46.63
58245;BME280;44550;43.864;25.986;2022-09-16T21:35:17;100068.19;;;26.78;46.66
58245;BME280;44550;43.864;25.986;2022-09-16T21:39:19;100113.66;;;26.92;46.79
58245;BME280;44550;43.864;25.986;2022-09-16T21:43:21;100116.13;;;26.95;46.62
58245;BME280;44550;43.864;25.986;2022-09-16T21:47:20;100105.72;;;26.90;46.53
58245;BME280;44550;43.864;25.986;2022-09-16T21:51:23;100091.25;;;26.80;46.48
58245;BME280;44550;43.864;25.986;2022-09-16T21:55:25;100112.06;;;26.89;46.59
58245;BME280;44550;43.864;25.986;2022-09-16T21:59:26;100087.94;;;26.64;47.14
58245;BME280;44550;43.864;25.986;2022-09-16T22:03:31;100099.66;;;26.76;47.11
58245;BME280;44550;43.864;25.986;2022-09-16T22:07:33;100099.94;;;26.84;47.00
58245;BME280;44550;43.864;25.986;2022-09-16T22:11:35;100071.09;;;26.75;46.68
58245;BME280;44550;43.864;25.986;2022-09-16T22:15:39;100099.50;;;27.03;46.46
58245;BME280;44550;43.864;25.986;2022-09-16T22:19:49;100071.09;;;26.62;47.15
58245;BME280;44550;43.864;25.986;2022-09-16T22:23:53;100070.88;;;26.27;48.31
58245;BME280;44550;43.864;25.986;2022-09-16T22:27:53;100078.38;;;26.34;48.50
58245;BME280;44550;43.864;25.986;2022-09-16T22:31:52;100080.41;;;26.43;48.16
58245;BME280;44550;43.864;25.986;2022-09-16T22:35:56;100033.84;;;26.19;47.87
58245;BME280;44550;43.864;25.986;2022-09-16T22:40:13;100040.53;;;26.26;47.97
58245;BME280;44550;43.864;25.986;2022-09-16T22:44:16;100071.38;;;26.19;48.93
58245;BME280;44550;43.864;25.986;2022-09-16T22:48:17;100062.44;;;25.80;49.79
58245;BME280;44550;43.864;25.986;2022-09-16T22:52:18;100068.91;;;25.76;50.08
58245;BME280;44550;43.864;25.986;2022-09-16T22:56:23;100058.38;;;25.60;50.56
58245;BME280;44550;43.864;25.986;2022-09-16T23:00:28;100055.13;;;25.55;50.54
58245;BME280;44550;43.864;25.986;2022-09-16T23:04:28;100046.34;;;25.26;51.15
58245;BME280;44550;43.864;25.986;2022-09-16T23:08:28;100050.00;;;24.96;52.16
58245;BME280;44550;43.864;25.986;2022-09-16T23:12:33;100035.34;;;24.75;52.64
58245;BME280;44550;43.864;25.986;2022-09-16T23:16:36;100047.19;;;24.71;52.93
58245;BME280;44550;43.864;25.986;2022-09-16T23:20:37;100044.78;;;24.66;52.93
58245;BME280;44550;43.864;25.986;2022-09-16T23:24:37;100039.56;;;24.50;53.31
58245;BME280;44550;43.864;25.986;2022-09-16T23:28:40;99976.34;;;24.35;52.94
58245;BME280;44550;43.864;25.986;2022-09-16T23:32:40;100036.47;;;24.85;52.48
58245;BME280;44550;43.864;25.986;2022-09-16T23:36:40;100020.28;;;24.74;52.54
58245;BME280;44550;43.864;25.986;2022-09-16T23:40:40;100017.88;;;24.55;53.09
58245;BME280;44550;43.864;25.986;2022-09-16T23:44:46;100014.91;;;24.59;53.00
58245;BME280;44550;43.864;25.986;2022-09-16T23:48:46;99997.00;;;24.47;53.21
58245;BME280;44550;43.864;25.986;2022-09-16T23:52:48;100013.97;;;24.46;53.29
58245;BME280;44550;43.864;25.986;2022-09-16T23:56:47;99983.63;;;24.47;53.00
